Time,TemperatureF,DewpointF,PressureIn,WindDirection,WindDirectionDegrees,WindSpeedMPH,WindSpeedGustMPH,Humidity,HourlyPrecipIn,Conditions,Clouds,dailyrainin,SoftwareType,DateUTC
2013-09-23 00:02:00,55.2,46.0,29.62,North,0,0.0,0.0,71,0.00,,OVC036,0.00,VWS V12.08,2013-09-23 07:02:00,
2013-09-23 00:07:00,55.2,46.4,29.62,North,0,0.0,0.0,72,0.00,,OVC036,0.00,VWS V12.08,2013-09-23 07:07:00,
2013-09-23 00:12:00,55.2,46.4,29.62,North,0,0.0,0.0,72,0.00,,OVC036,0.00,VWS V12.08,2013-09-23 07:12:00,
2013-09-23 00:17:00,55.2,46.7,29.62,North,0,0.0,0.0,73,0.00,,OVC036,0.00,VWS V12.08,2013-09-23 07:17:00,
2013-09-23 00:22:00,55.2,46.7,29.62,North,0,0.0,0.0,73,0.00,,OVC036,0.00,VWS V12.08,2013-09-23 07:22:00,
2013-09-23 00:27:00,55.6,46.7,29.62,North,0,0.0,0.0,72,0.00,,OVC036,0.00,VWS V12.08,2013-09-23 07:27:00,
2013-09-23 00:32:00,55.9,46.3,29.62,North,0,0.0,0.0,70,0.00,,OVC036,0.00,VWS V12.08,2013-09-23 07:32:00,
2013-09-23 00:37:00,56.1,45.7,29.62,North,0,0.0,0.0,68,0.00,,OVC036,0.00,VWS V12.08,2013-09-23 07:37:00,
2013-09-23 00:42:00,56.1,44.5,29.65,North,0,0.0,0.0,65,0.00,,OVC036,0.00,VWS V12.08,2013-09-23 07:42:00,
2013-09-23 00:47:00,55.9,44.4,29.65,North,0,0.0,0.0,65,0.00,,OVC036,0.00,VWS V12.08,2013-09-23 07:47:00,
2013-09-23 00:52:00,55.9,44.4,29.65,North,0,0.0,0.0,65,0.00,,OVC036,0.00,VWS V12.08,2013-09-23 07:52:00,
2013-09-23 00:57:00,55.9,44.4,29.62,North,0,0.0,0.0,65,0.00,,OVC036,0.00,VWS V12.08,2013-09-23 07:57:00,
2013-09-23 01:02:00,55.8,44.6,29.62,North,0,0.0,0.0,66,0.00,,OVC036,0.00,VWS V12.08,2013-09-23 08:02:00,
2013-09-23 01:07:00,55.6,44.0,29.62,North,0,0.0,0.0,65,0.00,,OVC036,0.00,VWS V12.08,2013-09-23 08:07:00,
2013-09-23 01:12:00,55.6,43.6,29.62,North,0,0.0,0.0,64,0.00,,OVC036,0.00,VWS V12.08,2013-09-23 08:12:00,
2013-09-23 01:17:00,55.4,43.8,29.62,North,0,0.0,0.0,65,0.00,,OVC036,0.00,VWS V12.08,2013-09-23 08:17:00,
2013-09-23 01:22:00,55.2,44.1,29.62,North,0,0.0,0.0,66,0.00,,OVC036,0.00,VWS V12.08,2013-09-23 08:22:00,
2013-09-23 01:27:00,55.0,43.9,29.62,North,0,0.0,0.0,66,0.00,,OVC036,0.00,VWS V12.08,2013-09-23 08:27:00,
2013-09-23 01:32:00,55.0,43.9,29.62,North,0,0.0,0.0,66,0.00,,OVC036,0.00,VWS V12.08,2013-09-23 08:32:00,
2013-09-23 01:37:00,54.9,44.1,29.62,North,0,0.0,0.0,67,0.00,,OVC036,0.00,VWS V12.08,2013-09-23 08:37:00,
2013-09-23 01:42:00,54.9,44.1,29.65,North,0,0.0,0.0,67,0.00,,OVC036,0.00,VWS V12.08,2013-09-23 08:42:00,
2013-09-23 01:47:00,54.7,44.0,29.65,North,0,0.0,0.0,67,0.00,,OVC036,0.00,VWS V12.08,2013-09-23 08:47:00,
2013-09-23 01:52:00,54.7,43.6,29.65,North,0,0.0,0.0,66,0.00,,OVC036,0.00,VWS V12.08,2013-09-23 08:52:00,
2013-09-23 01:57:00,54.5,43.4,29.65,North,0,0.0,0.0,66,0.00,,OVC036,0.00,VWS V12.08,2013-09-23 08:57:00,
2013-09-23 02:02:00,54.5,43.4,29.65,North,0,0.0,0.0,66,0.00,,OVC036,0.00,VWS V12.08,2013-09-23 09:02:00,
2013-09-23 02:07:00,54.7,41.9,29.65,North,0,0.0,0.0,62,0.00,,OVC036,0.00,VWS V12.08,2013-09-23 09:07:00,
2013-09-23 02:12:00,54.9,41.7,29.65,North,0,0.0,0.0,61,0.00,,OVC036,0.00,VWS V12.08,2013-09-23 09:12:00,
2013-09-23 02:17:00,54.9,41.2,29.65,North,0,0.0,0.0,60,0.00,,OVC036,0.00,VWS V12.08,2013-09-23 09:17:00,
2013-09-23 02:22:00,54.5,41.8,29.65,North,0,0.0,0.0,62,0.00,,OVC036,0.00,VWS V12.08,2013-09-23 09:22:00,
2013-09-23 02:27:00,54.5,41.8,29.65,North,0,0.0,0.0,62,0.00,,OVC036,0.00,VWS V12.08,2013-09-23 09:27:00,
2013-09-23 02:32:00,54.1,41.8,29.65,North,0,0.0,0.0,63,0.00,,OVC036,0.00,VWS V12.08,2013-09-23 09:32:00,
2013-09-23 02:37:00,54.0,42.1,29.65,North,0,0.0,0.0,64,0.00,,OVC036,0.00,VWS V12.08,2013-09-23 09:37:00,
2013-09-23 02:42:00,54.3,44.4,29.65,North,0,0.0,0.0,69,0.00,,OVC036,0.00,VWS V12.08,2013-09-23 09:42:00,
2013-09-23 02:47:00,54.3,44.4,29.65,North,0,0.0,0.0,69,0.00,,OVC036,0.00,VWS V12.08,2013-09-23 09:47:00,
2013-09-23 02:52:00,54.3,44.4,29.65,North,0,0.0,0.0,69,0.00,,OVC036,0.00,VWS V12.08,2013-09-23 09:52:00,
2013-09-23 02:57:00,54.5,44.5,29.65,North,0,0.0,0.0,69,0.00,,OVC036,0.00,VWS V12.08,2013-09-23 09:57:00,
2013-09-23 03:02:00,54.7,44.7,29.65,North,0,0.0,0.0,69,0.00,,OVC036,0.00,VWS V12.08,2013-09-23 10:02:00,
2013-09-23 03:07:00,54.7,44.7,29.65,North,0,0.0,0.0,69,0.00,,OVC036,0.00,VWS V12.08,2013-09-23 10:07:00,
2013-09-23 03:12:00,54.7,44.7,29.65,North,0,0.0,0.0,69,0.00,,OVC036,0.00,VWS V12.08,2013-09-23 10:12:00,
2013-09-23 03:17:00,54.9,44.9,29.65,North,0,0.0,0.0,69,0.00,,OVC036,0.00,VWS V12.08,2013-09-23 10:17:00,
2013-09-23 03:22:00,55.0,44.3,29.65,North,0,0.0,0.0,67,0.00,,OVC036,0.00,VWS V12.08,2013-09-23 10:22:00,
2013-09-23 03:27:00,55.2,44.5,29.65,North,0,0.0,0.0,67,0.00,,OVC036,0.00,VWS V12.08,2013-09-23 10:27:00,
2013-09-23 03:32:00,55.2,44.1,29.65,North,0,0.0,0.0,66,0.00,,OVC036,0.00,VWS V12.08,2013-09-23 10:32:00,
2013-09-23 03:37:00,55.2,42.9,29.65,North,0,0.0,0.0,63,0.00,,OVC036,0.00,VWS V12.08,2013-09-23 10:37:00,
2013-09-23 03:42:00,55.2,42.4,29.65,North,0,0.0,0.0,62,0.00,,OVC036,0.00,VWS V12.08,2013-09-23 10:42:00,
2013-09-23 03:47:00,55.2,42.0,29.65,North,0,0.0,0.0,61,0.00,,OVC036,0.00,VWS V12.08,2013-09-23 10:47:00,
2013-09-23 03:52:00,55.0,41.8,29.65,North,0,0.0,0.0,61,0.00,,OVC036,0.00,VWS V12.08,2013-09-23 10:52:00,
2013-09-23 03:57:00,55.0,41.4,29.68,North,0,0.0,0.0,60,0.00,,OVC036,0.00,VWS V12.08,2013-09-23 10:57:00,
2013-09-23 04:02:00,55.0,41.8,29.68,North,0,0.0,0.0,61,0.00,,OVC036,0.00,VWS V12.08,2013-09-23 11:02:00,
2013-09-23 04:07:00,55.2,41.2,29.68,North,0,0.0,0.0,59,0.00,,OVC036,0.00,VWS V12.08,2013-09-23 11:07:00,
2013-09-23 04:12:00,55.0,41.4,29.68,North,0,0.0,0.0,60,0.00,,OVC036,0.00,VWS V12.08,2013-09-23 11:12:00,
2013-09-23 04:17:00,55.0,41.4,29.68,North,0,0.0,0.0,60,0.00,,OVC036,0.00,VWS V12.08,2013-09-23 11:17:00,
2013-09-23 04:22:00,55.0,41.8,29.68,North,0,0.0,0.0,61,0.00,,OVC036,0.00,VWS V12.08,2013-09-23 11:22:00,
2013-09-23 04:27:00,55.0,41.8,29.68,North,0,0.0,0.0,61,0.00,,OVC036,0.00,VWS V12.08,2013-09-23 11:27:00,
2013-09-23 04:32:00,55.0,42.3,29.68,North,0,0.0,0.0,62,0.00,,OVC036,0.00,VWS V12.08,2013-09-23 11:32:00,
2013-09-23 04:37:00,54.9,42.5,29.68,North,0,0.0,0.0,63,0.00,,OVC036,0.00,VWS V12.08,2013-09-23 11:37:00,
2013-09-23 04:42:00,54.9,42.9,29.68,North,0,0.0,0.0,64,0.00,,OVC036,0.00,VWS V12.08,2013-09-23 11:42:00,
2013-09-23 04:47:00,54.9,43.3,29.68,North,0,0.0,0.0,65,0.00,,OVC036,0.00,VWS V12.08,2013-09-23 11:47:00,
2013-09-23 04:52:00,54.7,43.6,29.68,North,0,0.0,0.0,66,0.00,,OVC036,0.00,VWS V12.08,2013-09-23 11:52:00,
2013-09-23 04:57:00,54.7,44.0,29.68,North,0,0.0,0.0,67,0.00,,OVC036,0.00,VWS V12.08,2013-09-23 11:57:00,
2013-09-23 05:02:00,54.9,44.5,29.68,North,0,0.0,0.0,68,0.00,,OVC036,0.00,VWS V12.08,2013-09-23 12:02:00,
2013-09-23 05:07:00,54.9,44.5,29.68,North,0,0.0,0.0,68,0.00,,OVC036,0.00,VWS V12.08,2013-09-23 12:07:00,
2013-09-23 05:12:00,54.9,44.5,29.68,North,0,0.0,0.0,68,0.00,,OVC036,0.00,VWS V12.08,2013-09-23 12:12:00,
2013-09-23 05:17:00,54.9,44.9,29.68,North,0,0.0,0.0,69,0.00,,OVC036,0.00,VWS V12.08,2013-09-23 12:17:00,
2013-09-23 05:22:00,54.9,44.9,29.68,North,0,0.0,0.0,69,0.00,,OVC036,0.00,VWS V12.08,2013-09-23 12:22:00,
2013-09-23 05:27:00,55.0,45.5,29.68,North,0,0.0,0.0,70,0.00,,OVC036,0.00,VWS V12.08,2013-09-23 12:27:00,
2013-09-23 05:32:00,54.9,45.3,29.68,North,0,0.0,0.0,70,0.00,,OVC036,0.00,VWS V12.08,2013-09-23 12:32:00,
2013-09-23 05:37:00,55.0,45.5,29.68,North,0,0.0,0.0,70,0.00,,OVC036,0.00,VWS V12.08,2013-09-23 12:37:00,
2013-09-23 05:42:00,55.0,45.5,29.68,North,0,0.0,0.0,70,0.00,,OVC036,0.00,VWS V12.08,2013-09-23 12:42:00,
2013-09-23 05:47:00,55.0,45.5,29.68,North,0,0.0,0.0,70,0.00,,OVC036,0.00,VWS V12.08,2013-09-23 12:47:00,
2013-09-23 05:52:00,55.2,45.2,29.68,North,0,0.0,0.0,69,0.00,,OVC036,0.00,VWS V12.08,2013-09-23 12:52:00,
2013-09-23 05:57:00,55.2,45.2,29.68,North,0,0.0,0.0,69,0.00,,OVC036,0.00,VWS V12.08,2013-09-23 12:57:00,
2013-09-23 06:02:00,55.4,45.8,29.68,North,0,0.0,0.0,70,0.00,,OVC036,0.00,VWS V12.08,2013-09-23 13:02:00,
2013-09-23 06:07:00,55.4,45.8,29.68,North,0,0.0,0.0,70,0.00,,OVC036,0.00,VWS V12.08,2013-09-23 13:07:00,
2013-09-23 06:12:00,55.4,45.8,29.68,North,0,0.0,0.0,70,0.00,,OVC036,0.00,VWS V12.08,2013-09-23 13:12:00,
2013-09-23 06:17:00,55.6,46.0,29.68,North,0,0.0,0.0,70,0.00,,OVC036,0.00,VWS V12.08,2013-09-23 13:17:00,
2013-09-23 06:22:00,55.6,46.0,29.68,North,0,0.0,0.0,70,0.00,,OVC036,0.00,VWS V12.08,2013-09-23 13:22:00,
2013-09-23 06:27:00,55.6,46.0,29.68,North,0,0.0,0.0,70,0.00,,OVC036,0.00,VWS V12.08,2013-09-23 13:27:00,
2013-09-23 06:32:00,55.6,46.3,29.68,North,0,0.0,0.0,71,0.00,,OVC036,0.00,VWS V12.08,2013-09-23 13:32:00,
2013-09-23 06:37:00,55.6,46.3,29.68,North,0,0.0,0.0,71,0.00,,OVC036,0.00,VWS V12.08,2013-09-23 13:37:00,
2013-09-23 06:42:00,55.6,46.3,29.71,North,0,0.0,0.0,71,0.00,,OVC036,0.00,VWS V12.08,2013-09-23 13:42:00,
2013-09-23 06:47:00,55.6,46.0,29.71,North,0,0.0,0.0,70,0.00,,OVC036,0.00,VWS V12.08,2013-09-23 13:47:00,
2013-09-23 06:52:00,55.6,46.0,29.71,North,0,0.0,0.0,70,0.00,,OVC036,0.00,VWS V12.08,2013-09-23 13:52:00,
2013-09-23 06:57:00,55.4,45.4,29.71,North,0,0.0,0.0,69,0.00,,OVC036,0.00,VWS V12.08,2013-09-23 13:57:00,
2013-09-23 07:02:00,55.4,45.4,29.71,North,0,0.0,0.0,69,0.00,,OVC036,0.00,VWS V12.08,2013-09-23 14:02:00,
2013-09-23 07:07:00,55.6,45.6,29.71,North,0,0.0,0.0,69,0.00,,OVC036,0.00,VWS V12.08,2013-09-23 14:07:00,
2013-09-23 07:12:00,55.6,46.0,29.71,North,0,0.0,0.0,70,0.00,,OVC036,0.00,VWS V12.08,2013-09-23 14:12:00,
2013-09-23 07:17:00,55.6,46.3,29.71,North,0,0.0,0.0,71,0.00,,OVC036,0.00,VWS V12.08,2013-09-23 14:17:00,
2013-09-23 07:22:00,55.6,46.3,29.71,North,0,0.0,0.0,71,0.00,,OVC036,0.00,VWS V12.08,2013-09-23 14:22:00,
2013-09-23 07:27:00,55.6,46.0,29.71,North,0,0.0,0.0,70,0.00,,OVC036,0.00,VWS V12.08,2013-09-23 14:27:00,
2013-09-23 07:32:00,55.6,45.6,29.71,North,0,0.0,0.0,69,0.00,,OVC036,0.00,VWS V12.08,2013-09-23 14:32:00,
2013-09-23 07:37:00,55.6,45.2,29.71,North,0,0.0,0.0,68,0.00,,OVC036,0.00,VWS V12.08,2013-09-23 14:37:00,
2013-09-23 07:42:00,55.6,45.2,29.71,North,0,0.0,0.0,68,0.00,,OVC036,0.00,VWS V12.08,2013-09-23 14:42:00,
2013-09-23 07:47:00,55.6,45.2,29.71,North,0,0.0,0.0,68,0.00,,OVC036,0.00,VWS V12.08,2013-09-23 14:47:00,
2013-09-23 07:52:00,55.8,45.4,29.71,North,0,0.0,0.0,68,0.00,,OVC036,0.00,VWS V12.08,2013-09-23 14:52:00,
2013-09-23 07:57:00,55.8,46.1,29.71,North,0,0.0,0.0,70,0.00,,OVC036,0.00,VWS V12.08,2013-09-23 14:57:00,
2013-09-23 08:02:00,55.9,46.3,29.71,North,0,0.0,0.0,70,0.00,,OVC036,0.00,VWS V12.08,2013-09-23 15:02:00,
2013-09-23 08:07:00,55.9,45.9,29.71,North,0,0.0,0.0,69,0.00,,OVC036,0.00,VWS V12.08,2013-09-23 15:07:00,
2013-09-23 08:12:00,55.9,45.9,29.71,North,0,0.0,0.0,69,0.00,,OVC036,0.00,VWS V12.08,2013-09-23 15:12:00,
2013-09-23 08:17:00,55.9,45.5,29.71,North,0,0.0,0.0,68,0.00,,OVC036,0.00,VWS V12.08,2013-09-23 15:17:00,
2013-09-23 08:22:00,56.1,45.3,29.71,North,0,0.0,0.0,67,0.00,,OVC036,0.00,VWS V12.08,2013-09-23 15:22:00,
2013-09-23 08:27:00,56.1,46.1,29.71,North,0,0.0,0.0,69,0.00,,OVC036,0.00,VWS V12.08,2013-09-23 15:27:00,
2013-09-23 08:32:00,55.9,45.2,29.71,North,0,0.0,0.0,67,0.00,,OVC036,0.00,VWS V12.08,2013-09-23 15:32:00,
2013-09-23 08:37:00,55.9,45.5,29.71,North,0,0.0,0.0,68,0.00,,OVC036,0.00,VWS V12.08,2013-09-23 15:37:00,
2013-09-23 08:42:00,55.9,45.5,29.71,North,0,0.0,0.0,68,0.00,,OVC036,0.00,VWS V12.08,2013-09-23 15:42:00,
2013-09-23 08:47:00,55.9,45.9,29.71,North,0,0.0,0.0,69,0.00,,OVC036,0.00,VWS V12.08,2013-09-23 15:47:00,
2013-09-23 08:52:00,55.9,45.9,29.71,North,0,0.0,0.0,69,0.00,,OVC036,0.00,VWS V12.08,2013-09-23 15:52:00,
2013-09-23 08:57:00,55.8,45.8,29.74,North,0,0.0,0.0,69,0.00,,OVC036,0.00,VWS V12.08,2013-09-23 15:57:00,
2013-09-23 09:02:00,55.8,46.1,29.74,North,0,0.0,0.0,70,0.00,,OVC036,0.00,VWS V12.08,2013-09-23 16:02:00,
2013-09-23 09:07:00,55.8,46.5,29.74,North,0,0.0,0.0,71,0.00,,OVC036,0.00,VWS V12.08,2013-09-23 16:07:00,
2013-09-23 09:12:00,55.6,45.6,29.74,North,0,0.0,0.0,69,0.00,,OVC036,0.00,VWS V12.08,2013-09-23 16:12:00,
2013-09-23 09:17:00,55.8,44.6,29.74,North,0,0.0,0.0,66,0.00,,OVC036,0.00,VWS V12.08,2013-09-23 16:17:00,
2013-09-23 09:22:00,55.8,44.2,29.74,North,0,0.0,0.0,65,0.00,,OVC036,0.00,VWS V12.08,2013-09-23 16:22:00,
2013-09-23 09:27:00,55.9,43.5,29.74,North,0,0.0,0.0,63,0.00,,OVC036,0.00,VWS V12.08,2013-09-23 16:27:00,
2013-09-23 09:32:00,55.9,42.7,29.74,North,0,0.0,0.0,61,0.00,,OVC036,0.00,VWS V12.08,2013-09-23 16:32:00,
2013-09-23 09:37:00,55.8,42.1,29.74,North,0,0.0,0.0,60,0.00,,OVC036,0.00,VWS V12.08,2013-09-23 16:37:00,
2013-09-23 09:42:00,55.9,42.7,29.74,North,0,0.0,0.0,61,0.00,,OVC036,0.00,VWS V12.08,2013-09-23 16:42:00,
2013-09-23 09:47:00,55.9,43.1,29.74,North,0,0.0,0.0,62,0.00,,OVC036,0.00,VWS V12.08,2013-09-23 16:47:00,
2013-09-23 09:52:00,56.1,43.3,29.74,North,0,0.0,0.0,62,0.00,,OVC036,0.00,VWS V12.08,2013-09-23 16:52:00,
2013-09-23 09:57:00,56.5,43.2,29.74,North,0,0.0,0.0,61,0.00,,OVC036,0.00,VWS V12.08,2013-09-23 16:57:00,
2013-09-23 10:02:00,56.3,42.6,29.74,North,0,0.0,0.0,60,0.00,,OVC036,0.00,VWS V12.08,2013-09-23 17:02:00,
2013-09-23 10:07:00,56.5,43.2,29.74,North,0,0.0,0.0,61,0.00,,OVC036,0.00,VWS V12.08,2013-09-23 17:07:00,
2013-09-23 10:12:00,56.7,43.4,29.74,North,0,0.0,0.0,61,0.00,,OVC036,0.00,VWS V12.08,2013-09-23 17:12:00,
2013-09-23 10:17:00,56.8,43.1,29.74,North,0,0.0,0.0,60,0.00,,OVC036,0.00,VWS V12.08,2013-09-23 17:17:00,
2013-09-23 10:22:00,56.8,42.7,29.74,North,0,0.0,0.0,59,0.00,,OVC036,0.00,VWS V12.08,2013-09-23 17:22:00,
2013-09-23 10:27:00,57.2,42.6,29.74,North,0,0.0,0.0,58,0.00,,OVC036,0.00,VWS V12.08,2013-09-23 17:27:00,
2013-09-23 10:32:00,57.4,42.7,29.74,North,0,0.0,0.0,58,0.00,,OVC036,0.00,VWS V12.08,2013-09-23 17:32:00,
2013-09-23 10:37:00,57.7,42.2,29.74,North,0,0.0,0.0,56,0.00,,OVC036,0.00,VWS V12.08,2013-09-23 17:37:00,
2013-09-23 10:42:00,57.6,40.6,29.74,North,0,0.0,0.0,53,0.00,,OVC036,0.00,VWS V12.08,2013-09-23 17:42:00,
2013-09-23 10:47:00,57.6,41.1,29.74,North,0,0.0,0.0,54,0.00,,OVC036,0.00,VWS V12.08,2013-09-23 17:47:00,
2013-09-23 10:52:00,57.6,41.1,29.74,North,0,0.0,0.0,54,0.00,,OVC036,0.00,VWS V12.08,2013-09-23 17:52:00,
2013-09-23 10:57:00,57.6,41.1,29.77,North,0,0.0,0.0,54,0.00,,OVC036,0.00,VWS V12.08,2013-09-23 17:57:00,
2013-09-23 11:02:00,57.6,41.5,29.77,North,0,0.0,0.0,55,0.00,,OVC036,0.00,VWS V12.08,2013-09-23 18:02:00,
2013-09-23 11:07:00,57.7,41.2,29.77,North,0,0.0,0.0,54,0.00,,OVC036,0.00,VWS V12.08,2013-09-23 18:07:00,
2013-09-23 11:12:00,58.1,42.0,29.77,North,0,0.0,0.0,55,0.00,,OVC036,0.00,VWS V12.08,2013-09-23 18:12:00,
2013-09-23 11:17:00,58.1,41.1,29.77,North,0,0.0,0.0,53,0.00,,OVC036,0.00,VWS V12.08,2013-09-23 18:17:00,
2013-09-23 11:22:00,58.3,39.7,29.77,North,0,0.0,0.0,50,0.00,,OVC036,0.00,VWS V12.08,2013-09-23 18:22:00,
2013-09-23 11:27:00,58.5,39.9,29.77,North,0,0.0,0.0,50,0.00,,OVC036,0.00,VWS V12.08,2013-09-23 18:27:00,
2013-09-23 11:32:00,58.6,39.5,29.77,North,0,0.0,0.0,49,0.00,,OVC036,0.00,VWS V12.08,2013-09-23 18:32:00,
2013-09-23 11:37:00,59.0,38.8,29.77,North,0,0.0,0.0,47,0.00,,OVC036,0.00,VWS V12.08,2013-09-23 18:37:00,
2013-09-23 11:42:00,59.2,38.4,29.77,North,0,0.0,0.0,46,0.00,,OVC036,0.00,VWS V12.08,2013-09-23 18:42:00,
2013-09-23 11:47:00,59.0,38.3,29.77,North,0,0.0,0.0,46,0.00,,OVC036,0.00,VWS V12.08,2013-09-23 18:47:00,
2013-09-23 11:52:00,59.2,38.4,29.77,North,0,0.0,0.0,46,0.00,,OVC036,0.00,VWS V12.08,2013-09-23 18:52:00,
2013-09-23 11:57:00,59.2,39.0,29.77,North,0,0.0,0.0,47,0.00,,OVC036,0.00,VWS V12.08,2013-09-23 18:57:00,
2013-09-23 12:02:00,59.2,39.0,29.77,North,0,0.0,0.0,47,0.00,,OVC036,0.00,VWS V12.08,2013-09-23 19:02:00,
2013-09-23 12:07:00,59.4,39.2,29.77,North,0,0.0,0.0,47,0.00,,OVC036,0.00,VWS V12.08,2013-09-23 19:07:00,
2013-09-23 12:12:00,59.5,39.3,29.77,North,0,0.0,0.0,47,0.00,,OVC036,0.00,VWS V12.08,2013-09-23 19:12:00,
2013-09-23 12:17:00,59.4,38.6,29.77,North,0,0.0,0.0,46,0.00,,OVC036,0.00,VWS V12.08,2013-09-23 19:17:00,
2013-09-23 12:22:00,59.5,38.8,29.77,North,0,0.0,0.0,46,0.00,,OVC036,0.00,VWS V12.08,2013-09-23 19:22:00,
2013-09-23 12:27:00,59.7,38.9,29.80,North,0,0.0,0.0,46,0.00,,OVC036,0.00,VWS V12.08,2013-09-23 19:27:00,
2013-09-23 12:32:00,60.1,36.9,29.80,North,0,0.0,0.0,42,0.00,,OVC036,0.00,VWS V12.08,2013-09-23 19:32:00,
2013-09-23 12:37:00,60.3,38.3,29.80,North,0,0.0,0.0,44,0.00,,OVC036,0.00,VWS V12.08,2013-09-23 19:37:00,
2013-09-23 12:42:00,59.9,38.0,29.77,North,0,0.0,0.0,44,0.00,,OVC036,0.00,VWS V12.08,2013-09-23 19:42:00,
2013-09-23 12:47:00,59.9,38.5,29.77,North,0,0.0,0.0,45,0.00,,OVC036,0.00,VWS V12.08,2013-09-23 19:47:00,
2013-09-23 12:52:00,59.4,38.0,29.77,North,0,0.0,0.0,45,0.00,,OVC036,0.00,VWS V12.08,2013-09-23 19:52:00,
2013-09-23 12:57:00,59.5,38.2,29.77,North,0,0.0,0.0,45,0.00,,OVC036,0.00,VWS V12.08,2013-09-23 19:57:00,
2013-09-23 13:02:00,59.5,38.2,29.77,North,0,0.0,0.0,45,0.00,,OVC036,0.00,VWS V12.08,2013-09-23 20:02:00,
2013-09-23 13:07:00,59.4,38.6,29.77,North,0,0.0,0.0,46,0.00,,OVC036,0.00,VWS V12.08,2013-09-23 20:07:00,
2013-09-23 13:12:00,59.5,38.2,29.80,North,0,0.0,0.0,45,0.00,,OVC036,0.00,VWS V12.08,2013-09-23 20:12:00,
2013-09-23 13:17:00,59.7,37.2,29.80,North,0,0.0,0.0,43,0.00,,OVC036,0.00,VWS V12.08,2013-09-23 20:17:00,
2013-09-23 13:22:00,59.9,37.4,29.80,North,0,0.0,0.0,43,0.00,,OVC036,0.00,VWS V12.08,2013-09-23 20:22:00,
2013-09-23 13:27:00,60.1,36.3,29.80,North,0,0.0,0.0,41,0.00,,OVC036,0.00,VWS V12.08,2013-09-23 20:27:00,
2013-09-23 13:32:00,60.3,37.7,29.80,North,0,0.0,0.0,43,0.00,,OVC036,0.00,VWS V12.08,2013-09-23 20:32:00,
2013-09-23 13:37:00,60.4,35.4,29.80,North,0,0.0,0.0,39,0.00,,OVC036,0.00,VWS V12.08,2013-09-23 20:37:00,
2013-09-23 13:42:00,61.0,35.9,29.80,North,0,0.0,0.0,39,0.00,,OVC036,0.00,VWS V12.08,2013-09-23 20:42:00,
2013-09-23 13:47:00,61.3,34.9,29.80,North,0,0.0,0.0,37,0.00,,OVC036,0.00,VWS V12.08,2013-09-23 20:47:00,
2013-09-23 13:52:00,61.7,35.2,29.80,North,0,0.0,0.0,37,0.00,,OVC036,0.00,VWS V12.08,2013-09-23 20:52:00,
2013-09-23 13:57:00,62.4,34.4,29.80,North,0,0.0,0.0,35,0.00,,OVC036,0.00,VWS V12.08,2013-09-23 20:57:00,
2013-09-23 14:02:00,63.3,35.2,29.80,North,0,0.0,0.0,35,0.00,,OVC036,0.00,VWS V12.08,2013-09-23 21:02:00,
2013-09-23 14:07:00,62.2,33.5,29.80,North,0,0.0,0.0,34,0.00,,OVC036,0.00,VWS V12.08,2013-09-23 21:07:00,
2013-09-23 14:12:00,62.2,34.3,29.80,North,0,0.0,0.0,35,0.00,,OVC036,0.00,VWS V12.08,2013-09-23 21:12:00,
2013-09-23 14:17:00,61.9,34.7,29.80,North,0,0.0,0.0,36,0.00,,OVC036,0.00,VWS V12.08,2013-09-23 21:17:00,
2013-09-23 14:22:00,61.3,35.5,29.80,North,0,0.0,0.0,38,0.00,,OVC036,0.00,VWS V12.08,2013-09-23 21:22:00,
2013-09-23 14:27:00,60.6,36.2,29.80,North,0,0.0,0.0,40,0.00,,OVC036,0.00,VWS V12.08,2013-09-23 21:27:00,
2013-09-23 14:32:00,60.8,35.7,29.80,North,0,0.0,0.0,39,0.00,,OVC036,0.00,VWS V12.08,2013-09-23 21:32:00,
2013-09-23 14:37:00,61.3,35.5,29.80,North,0,0.0,0.0,38,0.00,,OVC036,0.00,VWS V12.08,2013-09-23 21:37:00,
2013-09-23 14:42:00,61.7,34.5,29.80,North,0,0.0,0.0,36,0.00,,OVC036,0.00,VWS V12.08,2013-09-23 21:42:00,
2013-09-23 14:47:00,62.2,35.7,29.80,North,0,0.0,0.0,37,0.00,,OVC036,0.00,VWS V12.08,2013-09-23 21:47:00,
2013-09-23 14:52:00,62.2,35.7,29.80,North,0,0.0,0.0,37,0.00,,OVC036,0.00,VWS V12.08,2013-09-23 21:52:00,
2013-09-23 14:57:00,61.9,34.7,29.80,North,0,0.0,0.0,36,0.00,,OVC036,0.00,VWS V12.08,2013-09-23 21:57:00,
2013-09-23 15:02:00,60.4,35.4,29.80,North,0,0.0,0.0,39,0.00,,OVC036,0.00,VWS V12.08,2013-09-23 22:02:00,
2013-09-23 15:07:00,59.5,36.5,29.80,North,0,0.0,0.0,42,0.00,,OVC036,0.00,VWS V12.08,2013-09-23 22:07:00,
2013-09-23 15:12:00,58.8,37.5,29.80,North,0,0.0,0.0,45,0.00,,OVC036,0.00,VWS V12.08,2013-09-23 22:12:00,
2013-09-23 15:17:00,58.3,39.2,29.80,North,0,0.0,0.0,49,0.00,,OVC036,0.00,VWS V12.08,2013-09-23 22:17:00,
2013-09-23 15:22:00,58.1,40.6,29.80,North,0,0.0,0.0,52,0.00,,OVC036,0.00,VWS V12.08,2013-09-23 22:22:00,
2013-09-23 15:27:00,57.7,40.7,29.80,North,0,0.0,0.0,53,0.00,,OVC036,0.00,VWS V12.08,2013-09-23 22:27:00,
2013-09-23 15:32:00,57.7,42.2,29.80,North,0,0.0,0.0,56,0.00,,OVC036,0.00,VWS V12.08,2013-09-23 22:32:00,
2013-09-23 15:37:00,57.7,42.2,29.80,North,0,0.0,0.0,56,0.00,,OVC036,0.00,VWS V12.08,2013-09-23 22:37:00,
2013-09-23 15:42:00,57.6,41.5,29.80,North,0,0.0,0.0,55,0.00,,OVC036,0.00,VWS V12.08,2013-09-23 22:42:00,
2013-09-23 15:47:00,57.4,41.8,29.80,North,0,0.0,0.0,56,0.00,,OVC036,0.00,VWS V12.08,2013-09-23 22:47:00,
2013-09-23 15:52:00,57.6,42.5,29.80,North,0,0.0,0.0,57,0.00,,OVC036,0.00,VWS V12.08,2013-09-23 22:52:00,
2013-09-23 15:57:00,57.4,42.3,29.80,North,0,0.0,0.0,57,0.00,,OVC036,0.00,VWS V12.08,2013-09-23 22:57:00,
2013-09-23 16:02:00,57.2,40.2,29.80,North,0,0.0,0.0,53,0.00,,OVC036,0.00,VWS V12.08,2013-09-23 23:02:00,
2013-09-23 16:07:00,57.2,41.2,29.80,North,0,0.0,0.0,55,0.00,,OVC036,0.00,VWS V12.08,2013-09-23 23:07:00,
2013-09-23 16:12:00,57.2,41.2,29.83,North,0,0.0,0.0,55,0.00,,OVC036,0.00,VWS V12.08,2013-09-23 23:12:00,
2013-09-23 16:17:00,57.7,42.6,29.83,North,0,0.0,0.0,57,0.00,,OVC036,0.00,VWS V12.08,2013-09-23 23:17:00,
2013-09-23 16:22:00,58.1,42.5,29.83,North,0,0.0,0.0,56,0.00,,OVC036,0.00,VWS V12.08,2013-09-23 23:22:00,
2013-09-23 16:27:00,58.1,41.6,29.83,North,0,0.0,0.0,54,0.00,,OVC036,0.00,VWS V12.08,2013-09-23 23:27:00,
2013-09-23 16:32:00,58.3,40.8,29.83,North,0,0.0,0.0,52,0.00,,OVC036,0.00,VWS V12.08,2013-09-23 23:32:00,
2013-09-23 16:37:00,58.5,39.9,29.83,North,0,0.0,0.0,50,0.00,,OVC036,0.00,VWS V12.08,2013-09-23 23:37:00,
2013-09-23 16:42:00,57.7,37.7,29.83,North,0,0.0,0.0,47,0.00,,OVC036,0.00,VWS V12.08,2013-09-23 23:42:00,
2013-09-23 16:47:00,57.0,38.6,29.83,North,0,0.0,0.0,50,0.00,,OVC036,0.00,VWS V12.08,2013-09-23 23:47:00,
2013-09-23 16:52:00,57.2,40.2,29.83,North,0,0.0,0.0,53,0.00,,OVC036,0.00,VWS V12.08,2013-09-23 23:52:00,
2013-09-23 16:57:00,57.2,39.8,29.83,North,0,0.0,0.0,52,0.00,,OVC036,0.00,VWS V12.08,2013-09-23 23:57:00,
2013-09-23 17:02:00,57.2,40.2,29.83,North,0,0.0,0.0,53,0.00,,OVC036,0.00,VWS V12.08,2013-09-24 00:02:00,
2013-09-23 17:07:00,57.2,40.2,29.83,North,0,0.0,0.0,53,0.00,,OVC036,0.00,VWS V12.08,2013-09-24 00:07:00,
2013-09-23 17:12:00,57.2,40.2,29.83,North,0,0.0,0.0,53,0.00,,OVC036,0.00,VWS V12.08,2013-09-24 00:12:00,
2013-09-23 17:17:00,57.0,39.6,29.83,North,0,0.0,0.0,52,0.00,,OVC036,0.00,VWS V12.08,2013-09-24 00:17:00,
2013-09-23 17:22:00,56.8,41.3,29.83,North,0,0.0,0.0,56,0.00,,OVC036,0.00,VWS V12.08,2013-09-24 00:22:00,
2013-09-23 17:27:00,56.7,42.1,29.83,North,0,0.0,0.0,58,0.00,,OVC036,0.00,VWS V12.08,2013-09-24 00:27:00,
2013-09-23 17:32:00,56.5,42.3,29.83,North,0,0.0,0.0,59,0.00,,OVC036,0.00,VWS V12.08,2013-09-24 00:32:00,
2013-09-23 17:37:00,56.3,43.0,29.83,North,0,0.0,0.0,61,0.00,,OVC036,0.00,VWS V12.08,2013-09-24 00:37:00,
2013-09-23 17:42:00,56.3,43.0,29.83,North,0,0.0,0.0,61,0.00,,OVC036,0.00,VWS V12.08,2013-09-24 00:42:00,
2013-09-23 17:47:00,56.3,43.5,29.83,North,0,0.0,0.0,62,0.00,,OVC036,0.00,VWS V12.08,2013-09-24 00:47:00,
2013-09-23 17:52:00,56.1,42.4,29.83,North,0,0.0,0.0,60,0.00,,OVC036,0.00,VWS V12.08,2013-09-24 00:52:00,
2013-09-23 17:57:00,56.1,42.9,29.83,North,0,0.0,0.0,61,0.00,,OVC036,0.00,VWS V12.08,2013-09-24 00:57:00,
2013-09-23 18:02:00,56.1,42.9,29.83,North,0,0.0,0.0,61,0.00,,OVC036,0.00,VWS V12.08,2013-09-24 01:02:00,
2013-09-23 18:07:00,56.1,42.4,29.83,North,0,0.0,0.0,60,0.00,,OVC036,0.00,VWS V12.08,2013-09-24 01:07:00,
2013-09-23 18:12:00,56.1,42.4,29.83,North,0,0.0,0.0,60,0.00,,OVC036,0.00,VWS V12.08,2013-09-24 01:12:00,
2013-09-23 18:17:00,55.9,41.8,29.83,North,0,0.0,0.0,59,0.00,,OVC036,0.00,VWS V12.08,2013-09-24 01:17:00,
2013-09-23 18:22:00,55.8,41.7,29.83,North,0,0.0,0.0,59,0.00,,OVC036,0.00,VWS V12.08,2013-09-24 01:22:00,
2013-09-23 18:27:00,55.8,42.1,29.83,North,0,0.0,0.0,60,0.00,,OVC036,0.00,VWS V12.08,2013-09-24 01:27:00,
2013-09-23 18:32:00,55.6,42.4,29.83,North,0,0.0,0.0,61,0.00,,OVC036,0.00,VWS V12.08,2013-09-24 01:32:00,
2013-09-23 18:37:00,55.6,42.4,29.83,North,0,0.0,0.0,61,0.00,,OVC036,0.00,VWS V12.08,2013-09-24 01:37:00,
2013-09-23 18:42:00,55.8,42.5,29.83,North,0,0.0,0.0,61,0.00,,OVC036,0.00,VWS V12.08,2013-09-24 01:42:00,
2013-09-23 18:47:00,55.8,42.5,29.83,North,0,0.0,0.0,61,0.00,,OVC036,0.00,VWS V12.08,2013-09-24 01:47:00,
2013-09-23 18:52:00,55.6,42.4,29.83,North,0,0.0,0.0,61,0.00,,OVC036,0.00,VWS V12.08,2013-09-24 01:52:00,
2013-09-23 18:57:00,55.4,42.6,29.83,North,0,0.0,0.0,62,0.00,,OVC036,0.00,VWS V12.08,2013-09-24 01:57:00,
2013-09-23 19:02:00,55.4,42.6,29.83,North,0,0.0,0.0,62,0.00,,OVC036,0.00,VWS V12.08,2013-09-24 02:02:00,
2013-09-23 19:07:00,55.2,42.9,29.83,North,0,0.0,0.0,63,0.00,,OVC036,0.00,VWS V12.08,2013-09-24 02:07:00,
2013-09-23 19:12:00,55.2,42.9,29.83,North,0,0.0,0.0,63,0.00,,OVC036,0.00,VWS V12.08,2013-09-24 02:12:00,
2013-09-23 19:17:00,55.0,43.1,29.83,North,0,0.0,0.0,64,0.00,,OVC036,0.00,VWS V12.08,2013-09-24 02:17:00,
2013-09-23 19:22:00,54.9,43.3,29.83,North,0,0.0,0.0,65,0.00,,OVC036,0.00,VWS V12.08,2013-09-24 02:22:00,
2013-09-23 19:27:00,54.9,43.7,29.83,North,0,0.0,0.0,66,0.00,,OVC036,0.00,VWS V12.08,2013-09-24 02:27:00,
2013-09-23 19:32:00,54.9,44.1,29.83,North,0,0.0,0.0,67,0.00,,OVC036,0.00,VWS V12.08,2013-09-24 02:32:00,
2013-09-23 19:37:00,54.9,44.1,29.83,North,0,0.0,0.0,67,0.00,,OVC036,0.00,VWS V12.08,2013-09-24 02:37:00,
2013-09-23 19:42:00,54.7,45.1,29.85,North,0,0.0,0.0,70,0.00,,OVC036,0.00,VWS V12.08,2013-09-24 02:42:00,
2013-09-23 19:47:00,54.3,45.5,29.85,North,0,0.0,0.0,72,0.00,,OVC036,0.00,VWS V12.08,2013-09-24 02:47:00,
2013-09-23 19:52:00,54.5,46.0,29.85,North,0,0.0,0.0,73,0.00,,OVC036,0.00,VWS V12.08,2013-09-24 02:52:00,
2013-09-23 19:57:00,54.5,46.0,29.85,North,0,0.0,0.0,73,0.00,,OVC036,0.00,VWS V12.08,2013-09-24 02:57:00,
2013-09-23 20:02:00,54.5,46.0,29.85,North,0,0.0,0.0,73,0.00,,OVC036,0.00,VWS V12.08,2013-09-24 03:02:00,
2013-09-23 20:07:00,54.7,46.2,29.85,North,0,0.0,0.0,73,0.00,,OVC036,0.00,VWS V12.08,2013-09-24 03:07:00,
2013-09-23 20:12:00,54.7,46.2,29.85,North,0,0.0,0.0,73,0.00,,OVC036,0.00,VWS V12.08,2013-09-24 03:12:00,
2013-09-23 20:17:00,54.7,46.2,29.85,North,0,0.0,0.0,73,0.00,,OVC036,0.00,VWS V12.08,2013-09-24 03:17:00,
2013-09-23 20:22:00,54.5,46.0,29.85,North,0,0.0,0.0,73,0.00,,OVC036,0.00,VWS V12.08,2013-09-24 03:22:00,
2013-09-23 20:27:00,54.5,46.0,29.85,North,0,0.0,0.0,73,0.00,,OVC036,0.00,VWS V12.08,2013-09-24 03:27:00,
2013-09-23 20:32:00,54.3,45.9,29.85,North,0,0.0,0.0,73,0.00,,OVC036,0.00,VWS V12.08,2013-09-24 03:32:00,
2013-09-23 20:37:00,54.3,45.9,29.85,North,0,0.0,0.0,73,0.00,,OVC036,0.00,VWS V12.08,2013-09-24 03:37:00,
2013-09-23 20:42:00,54.3,45.9,29.85,North,0,0.0,0.0,73,0.00,,OVC036,0.00,VWS V12.08,2013-09-24 03:42:00,
2013-09-23 20:47:00,54.3,45.9,29.85,North,0,0.0,0.0,73,0.00,,OVC036,0.00,VWS V12.08,2013-09-24 03:47:00,
2013-09-23 20:52:00,54.1,45.7,29.85,North,0,0.0,0.0,73,0.00,,OVC036,0.00,VWS V12.08,2013-09-24 03:52:00,
2013-09-23 20:57:00,54.1,45.7,29.85,North,0,0.0,0.0,73,0.00,,OVC036,0.00,VWS V12.08,2013-09-24 03:57:00,
2013-09-23 21:01:00,54.1,45.7,29.85,North,0,0.0,0.0,73,0.00,,OVC036,0.00,VWS V12.08,2013-09-24 04:01:00,
2013-09-23 21:02:00,54.1,45.7,29.85,North,0,0.0,0.0,73,0.00,,OVC036,0.00,VWS V12.08,2013-09-24 04:02:00,
2013-09-23 21:08:00,54.1,45.7,29.85,North,0,0.0,0.0,73,0.00,,OVC036,0.00,VWS V12.08,2013-09-24 04:08:00,
2013-09-23 21:13:00,54.1,45.7,29.85,North,0,0.0,0.0,73,0.00,,OVC036,0.00,VWS V12.08,2013-09-24 04:13:00,
2013-09-23 21:18:00,54.0,45.5,29.85,North,0,0.0,0.0,73,0.00,,OVC036,0.00,VWS V12.08,2013-09-24 04:18:00,
2013-09-23 21:23:00,54.0,45.5,29.85,North,0,0.0,0.0,73,0.00,,OVC036,0.00,VWS V12.08,2013-09-24 04:23:00,
2013-09-23 21:28:00,54.0,45.5,29.85,North,0,0.0,0.0,73,0.00,,OVC036,0.00,VWS V12.08,2013-09-24 04:28:00,
2013-09-23 21:33:00,54.0,45.5,29.85,North,0,0.0,0.0,73,0.00,,OVC036,0.00,VWS V12.08,2013-09-24 04:33:00,
2013-09-23 21:38:00,54.0,45.5,29.85,North,0,0.0,0.0,73,0.00,,OVC036,0.00,VWS V12.08,2013-09-24 04:38:00,
2013-09-23 21:43:00,54.0,45.5,29.85,North,0,0.0,0.0,73,0.00,,OVC036,0.00,VWS V12.08,2013-09-24 04:43:00,
2013-09-23 21:48:00,54.0,45.9,29.85,North,0,0.0,0.0,74,0.00,,OVC036,0.00,VWS V12.08,2013-09-24 04:48:00,
2013-09-23 21:53:00,53.8,45.3,29.85,North,0,0.0,0.0,73,0.00,,OVC036,0.00,VWS V12.08,2013-09-24 04:53:00,
2013-09-23 21:58:00,53.8,45.7,29.85,North,0,0.0,0.0,74,0.00,,OVC036,0.00,VWS V12.08,2013-09-24 04:58:00,
2013-09-23 22:03:00,53.6,45.2,29.85,North,0,0.0,0.0,73,0.00,,OVC036,0.00,VWS V12.08,2013-09-24 05:03:00,
2013-09-23 22:08:00,53.6,45.5,29.85,North,0,0.0,0.0,74,0.00,,OVC036,0.00,VWS V12.08,2013-09-24 05:08:00,
2013-09-23 22:13:00,53.6,45.5,29.85,North,0,0.0,0.0,74,0.00,,OVC036,0.00,VWS V12.08,2013-09-24 05:13:00,
2013-09-23 22:18:00,53.6,45.5,29.85,North,0,0.0,0.0,74,0.00,,OVC036,0.00,VWS V12.08,2013-09-24 05:18:00,
2013-09-23 22:23:00,53.4,45.3,29.85,North,0,0.0,0.0,74,0.00,,OVC036,0.00,VWS V12.08,2013-09-24 05:23:00,
2013-09-23 22:28:00,53.4,45.3,29.85,North,0,0.0,0.0,74,0.00,,OVC036,0.00,VWS V12.08,2013-09-24 05:28:00,
2013-09-23 22:33:00,53.4,45.7,29.85,North,0,0.0,0.0,75,0.00,,OVC036,0.00,VWS V12.08,2013-09-24 05:33:00,
2013-09-23 22:38:00,53.4,45.3,29.85,North,0,0.0,0.0,74,0.00,,OVC036,0.00,VWS V12.08,2013-09-24 05:38:00,
2013-09-23 22:43:00,53.2,45.5,29.85,North,0,0.0,0.0,75,0.00,,OVC036,0.00,VWS V12.08,2013-09-24 05:43:00,
2013-09-23 22:48:00,53.2,45.5,29.85,North,0,0.0,0.0,75,0.00,,OVC036,0.00,VWS V12.08,2013-09-24 05:48:00,
2013-09-23 22:53:00,53.2,45.5,29.85,North,0,0.0,0.0,75,0.00,,OVC036,0.00,VWS V12.08,2013-09-24 05:53:00,
2013-09-23 22:58:00,53.2,45.5,29.85,North,0,0.0,0.0,75,0.00,,OVC036,0.00,VWS V12.08,2013-09-24 05:58:00,
2013-09-23 23:03:00,53.1,45.4,29.85,North,0,0.0,0.0,75,0.00,,OVC036,0.00,VWS V12.08,2013-09-24 06:03:00,
2013-09-23 23:08:00,53.1,45.4,29.85,North,0,0.0,0.0,75,0.00,,OVC036,0.00,VWS V12.08,2013-09-24 06:08:00,
2013-09-23 23:13:00,52.9,45.2,29.85,North,0,0.0,0.0,75,0.00,,OVC036,0.00,VWS V12.08,2013-09-24 06:13:00,
2013-09-23 23:18:00,52.9,45.2,29.85,North,0,0.0,0.0,75,0.00,,OVC036,0.00,VWS V12.08,2013-09-24 06:18:00,
2013-09-23 23:23:00,52.5,44.8,29.85,North,0,0.0,0.0,75,0.00,,OVC036,0.00,VWS V12.08,2013-09-24 06:23:00,
2013-09-23 23:28:00,52.3,44.7,29.85,North,0,0.0,0.0,75,0.00,,OVC036,0.00,VWS V12.08,2013-09-24 06:28:00,
2013-09-23 23:33:00,52.3,44.7,29.85,North,0,0.0,0.0,75,0.00,,OVC036,0.00,VWS V12.08,2013-09-24 06:33:00,
2013-09-23 23:38:00,52.3,44.7,29.85,North,0,0.0,0.0,75,0.00,,OVC036,0.00,VWS V12.08,2013-09-24 06:38:00,
2013-09-23 23:43:00,52.3,44.7,29.85,North,0,0.0,0.0,75,0.00,,OVC036,0.00,VWS V12.08,2013-09-24 06:43:00,
2013-09-23 23:48:00,52.3,44.7,29.85,North,0,0.0,0.0,75,0.00,,OVC036,0.00,VWS V12.08,2013-09-24 06:48:00,
2013-09-23 23:53:00,52.2,44.5,29.85,North,0,0.0,0.0,75,0.00,,OVC036,0.00,VWS V12.08,2013-09-24 06:53:00,
2013-09-23 23:58:00,52.2,44.5,29.85,North,0,0.0,0.0,75,0.00,,OVC036,0.00,VWS V12.08,2013-09-24 06:58:00,